sensor_id;sensor_type;location;lat;lon;timestamp;P1;durP1;ratioP1;P2;durP2;ratioP2
55672;SDS011;41554;45.366;20.400;2022-10-31T00:02:12;100.00;;;60.22;;
55672;SDS011;41554;45.366;20.400;2022-10-31T00:04:38;87.18;;;53.65;;
55672;SDS011;41554;45.366;20.400;2022-10-31T00:07:04;98.88;;;58.38;;
55672;SDS011;41554;45.366;20.400;2022-10-31T00:09:30;103.95;;;61.97;;
55672;SDS011;41554;45.366;20.400;2022-10-31T00:11:56;112.53;;;66.15;;
55672;SDS011;41554;45.366;20.400;2022-10-31T00:14:22;119.57;;;68.20;;
55672;SDS011;41554;45.366;20.400;2022-10-31T00:16:48;114.07;;;61.97;;
55672;SDS011;41554;45.366;20.400;2022-10-31T00:19:14;109.53;;;64.50;;
55672;SDS011;41554;45.366;20.400;2022-10-31T00:21:40;106.10;;;67.32;;
55672;SDS011;41554;45.366;20.400;2022-10-31T00:24:06;95.30;;;60.90;;
55672;SDS011;41554;45.366;20.400;2022-10-31T00:26:33;111.65;;;64.18;;
55672;SDS011;41554;45.366;20.400;2022-10-31T00:28:59;113.22;;;57.97;;
55672;SDS011;41554;45.366;20.400;2022-10-31T00:31:26;118.68;;;58.22;;
55672;SDS011;41554;45.366;20.400;2022-10-31T00:33:52;95.03;;;56.22;;
55672;SDS011;41554;45.366;20.400;2022-10-31T00:36:18;94.35;;;56.55;;
55672;SDS011;41554;45.366;20.400;2022-10-31T00:38:46;89.50;;;56.65;;
55672;SDS011;41554;45.366;20.400;2022-10-31T00:41:13;104.50;;;57.75;;
55672;SDS011;41554;45.366;20.400;2022-10-31T00:43:39;89.90;;;51.83;;
55672;SDS011;41554;45.366;20.400;2022-10-31T00:46:05;100.75;;;49.55;;
55672;SDS011;41554;45.366;20.400;2022-10-31T00:48:31;91.93;;;50.10;;
55672;SDS011;41554;45.366;20.400;2022-10-31T00:50:57;88.43;;;49.60;;
55672;SDS011;41554;45.366;20.400;2022-10-31T00:53:23;99.03;;;54.72;;
55672;SDS011;41554;45.366;20.400;2022-10-31T00:55:49;86.90;;;50.10;;
55672;SDS011;41554;45.366;20.400;2022-10-31T00:58:15;83.57;;;46.63;;
55672;SDS011;41554;45.366;20.400;2022-10-31T01:00:41;99.22;;;47.92;;
55672;SDS011;41554;45.366;20.400;2022-10-31T01:03:07;77.38;;;42.03;;
55672;SDS011;41554;45.366;20.400;2022-10-31T01:05:33;82.53;;;47.50;;
55672;SDS011;41554;45.366;20.400;2022-10-31T01:08:00;82.80;;;46.67;;
55672;SDS011;41554;45.366;20.400;2022-10-31T01:10:26;90.20;;;51.33;;
55672;SDS011;41554;45.366;20.400;2022-10-31T01:12:52;89.03;;;48.92;;
55672;SDS011;41554;45.366;20.400;2022-10-31T01:15:19;80.05;;;46.63;;
55672;SDS011;41554;45.366;20.400;2022-10-31T01:17:45;78.25;;;49.97;;
55672;SDS011;41554;45.366;20.400;2022-10-31T01:20:12;84.70;;;43.28;;
55672;SDS011;41554;45.366;20.400;2022-10-31T01:22:38;83.40;;;44.28;;
55672;SDS011;41554;45.366;20.400;2022-10-31T01:25:05;81.05;;;46.08;;
55672;SDS011;41554;45.366;20.400;2022-10-31T01:27:31;73.70;;;41.97;;
55672;SDS011;41554;45.366;20.400;2022-10-31T01:29:57;82.65;;;43.15;;
55672;SDS011;41554;45.366;20.400;2022-10-31T01:32:23;70.28;;;42.08;;
55672;SDS011;41554;45.366;20.400;2022-10-31T01:34:49;66.82;;;40.90;;
55672;SDS011;41554;45.366;20.400;2022-10-31T01:37:16;77.30;;;42.05;;
55672;SDS011;41554;45.366;20.400;2022-10-31T01:39:42;80.38;;;42.15;;
55672;SDS011;41554;45.366;20.400;2022-10-31T01:42:10;75.53;;;41.00;;
55672;SDS011;41554;45.366;20.400;2022-10-31T01:47:08;73.47;;;42.25;;
55672;SDS011;41554;45.366;20.400;2022-10-31T01:49:41;69.95;;;38.03;;
55672;SDS011;41554;45.366;20.400;2022-10-31T01:52:21;68.85;;;39.90;;
55672;SDS011;41554;45.366;20.400;2022-10-31T01:54:51;73.03;;;38.80;;
55672;SDS011;41554;45.366;20.400;2022-10-31T01:59:47;69.35;;;35.65;;
55672;SDS011;41554;45.366;20.400;2022-10-31T02:02:14;60.55;;;36.80;;
55672;SDS011;41554;45.366;20.400;2022-10-31T02:04:41;71.72;;;39.25;;
55672;SDS011;41554;45.366;20.400;2022-10-31T02:07:09;62.42;;;39.60;;
55672;SDS011;41554;45.366;20.400;2022-10-31T02:09:36;59.38;;;37.47;;
55672;SDS011;41554;45.366;20.400;2022-10-31T02:12:03;67.60;;;38.22;;
55672;SDS011;41554;45.366;20.400;2022-10-31T02:14:29;75.07;;;44.80;;
55672;SDS011;41554;45.366;20.400;2022-10-31T02:16:56;63.63;;;34.28;;
55672;SDS011;41554;45.366;20.400;2022-10-31T02:26:51;75.95;;;40.25;;
55672;SDS011;41554;45.366;20.400;2022-10-31T02:34:22;72.20;;;45.28;;
55672;SDS011;41554;45.366;20.400;2022-10-31T02:39:26;70.72;;;41.92;;
55672;SDS011;41554;45.366;20.400;2022-10-31T02:47:13;87.28;;;47.85;;
55672;SDS011;41554;45.366;20.400;2022-10-31T02:52:22;77.20;;;47.72;;
55672;SDS011;41554;45.366;20.400;2022-10-31T02:54:49;90.22;;;46.40;;
55672;SDS011;41554;45.366;20.400;2022-10-31T02:57:15;86.68;;;47.17;;
55672;SDS011;41554;45.366;20.400;2022-10-31T02:59:47;97.05;;;51.63;;
55672;SDS011;41554;45.366;20.400;2022-10-31T03:05:05;93.25;;;48.72;;
55672;SDS011;41554;45.366;20.400;2022-10-31T03:20:27;103.22;;;53.53;;
55672;SDS011;41554;45.366;20.400;2022-10-31T03:22:54;84.20;;;49.45;;
55672;SDS011;41554;45.366;20.400;2022-10-31T03:25:21;93.85;;;52.63;;
55672;SDS011;41554;45.366;20.400;2022-10-31T03:27:48;99.82;;;51.30;;
55672;SDS011;41554;45.366;20.400;2022-10-31T03:30:14;98.88;;;54.53;;
55672;SDS011;41554;45.366;20.400;2022-10-31T03:32:46;83.07;;;45.25;;
55672;SDS011;41554;45.366;20.400;2022-10-31T03:35:15;83.22;;;46.75;;
55672;SDS011;41554;45.366;20.400;2022-10-31T03:37:42;75.15;;;43.95;;
55672;SDS011;41554;45.366;20.400;2022-10-31T03:40:08;84.60;;;45.47;;
55672;SDS011;41554;45.366;20.400;2022-10-31T03:42:37;80.13;;;45.60;;
55672;SDS011;41554;45.366;20.400;2022-10-31T03:45:10;90.00;;;45.08;;
55672;SDS011;41554;45.366;20.400;2022-10-31T03:47:37;88.88;;;46.80;;
55672;SDS011;41554;45.366;20.400;2022-10-31T03:50:05;78.32;;;42.47;;
55672;SDS011;41554;45.366;20.400;2022-10-31T04:00:13;82.50;;;45.58;;
55672;SDS011;41554;45.366;20.400;2022-10-31T04:02:41;79.13;;;50.63;;
55672;SDS011;41554;45.366;20.400;2022-10-31T04:05:08;104.20;;;51.80;;
55672;SDS011;41554;45.366;20.400;2022-10-31T04:07:45;93.72;;;50.42;;
55672;SDS011;41554;45.366;20.400;2022-10-31T04:10:13;89.10;;;52.83;;
55672;SDS011;41554;45.366;20.400;2022-10-31T04:12:41;91.90;;;51.65;;
55672;SDS011;41554;45.366;20.400;2022-10-31T04:15:08;87.53;;;49.83;;
55672;SDS011;41554;45.366;20.400;2022-10-31T04:17:36;102.20;;;53.28;;
55672;SDS011;41554;45.366;20.400;2022-10-31T04:20:05;96.78;;;47.38;;
55672;SDS011;41554;45.366;20.400;2022-10-31T04:22:31;98.18;;;52.33;;
55672;SDS011;41554;45.366;20.400;2022-10-31T04:24:57;95.47;;;51.05;;
55672;SDS011;41554;45.366;20.400;2022-10-31T04:27:23;97.53;;;52.78;;
55672;SDS011;41554;45.366;20.400;2022-10-31T04:29:49;94.72;;;53.78;;
55672;SDS011;41554;45.366;20.400;2022-10-31T04:32:15;104.22;;;54.78;;
55672;SDS011;41554;45.366;20.400;2022-10-31T04:34:41;103.65;;;53.00;;
55672;SDS011;41554;45.366;20.400;2022-10-31T04:37:07;93.95;;;48.60;;
55672;SDS011;41554;45.366;20.400;2022-10-31T04:39:33;79.68;;;51.78;;
55672;SDS011;41554;45.366;20.400;2022-10-31T04:41:59;87.40;;;48.25;;
55672;SDS011;41554;45.366;20.400;2022-10-31T04:44:25;94.93;;;55.15;;
55672;SDS011;41554;45.366;20.400;2022-10-31T04:46:51;98.10;;;45.63;;
55672;SDS011;41554;45.366;20.400;2022-10-31T04:49:17;90.82;;;47.17;;
55672;SDS011;41554;45.366;20.400;2022-10-31T04:51:43;92.82;;;48.72;;
55672;SDS011;41554;45.366;20.400;2022-10-31T04:54:09;88.53;;;43.00;;
55672;SDS011;41554;45.366;20.400;2022-10-31T04:56:35;77.97;;;42.03;;
55672;SDS011;41554;45.366;20.400;2022-10-31T04:59:01;82.60;;;46.15;;
55672;SDS011;41554;45.366;20.400;2022-10-31T05:01:28;69.32;;;39.10;;
55672;SDS011;41554;45.366;20.400;2022-10-31T05:03:54;79.20;;;47.60;;
55672;SDS011;41554;45.366;20.400;2022-10-31T05:06:20;76.68;;;44.58;;
55672;SDS011;41554;45.366;20.400;2022-10-31T05:08:46;65.55;;;36.75;;
55672;SDS011;41554;45.366;20.400;2022-10-31T05:11:12;85.60;;;43.97;;
55672;SDS011;41554;45.366;20.400;2022-10-31T05:13:38;73.25;;;42.20;;
55672;SDS011;41554;45.366;20.400;2022-10-31T05:16:04;65.63;;;35.22;;
55672;SDS011;41554;45.366;20.400;2022-10-31T05:18:30;60.05;;;32.50;;
55672;SDS011;41554;45.366;20.400;2022-10-31T05:20:56;79.78;;;43.55;;
55672;SDS011;41554;45.366;20.400;2022-10-31T05:23:22;67.82;;;38.50;;
55672;SDS011;41554;45.366;20.400;2022-10-31T05:25:48;63.65;;;35.20;;
55672;SDS011;41554;45.366;20.400;2022-10-31T05:28:14;64.85;;;36.58;;
55672;SDS011;41554;45.366;20.400;2022-10-31T05:30:40;70.28;;;37.28;;
55672;SDS011;41554;45.366;20.400;2022-10-31T05:33:06;71.13;;;37.90;;
55672;SDS011;41554;45.366;20.400;2022-10-31T05:35:33;69.05;;;34.13;;
55672;SDS011;41554;45.366;20.400;2022-10-31T05:37:59;66.15;;;37.70;;
55672;SDS011;41554;45.366;20.400;2022-10-31T05:40:26;62.50;;;34.47;;
55672;SDS011;41554;45.366;20.400;2022-10-31T05:42:53;72.22;;;35.17;;
55672;SDS011;41554;45.366;20.400;2022-10-31T05:45:20;61.08;;;34.55;;
55672;SDS011;41554;45.366;20.400;2022-10-31T05:47:53;68.13;;;37.50;;
55672;SDS011;41554;45.366;20.400;2022-10-31T05:50:19;68.30;;;34.17;;
55672;SDS011;41554;45.366;20.400;2022-10-31T05:52:46;66.20;;;37.17;;
55672;SDS011;41554;45.366;20.400;2022-10-31T05:55:12;65.47;;;36.08;;
55672;SDS011;41554;45.366;20.400;2022-10-31T05:57:38;81.45;;;39.00;;
55672;SDS011;41554;45.366;20.400;2022-10-31T06:00:04;82.80;;;38.88;;
55672;SDS011;41554;45.366;20.400;2022-10-31T06:02:31;58.95;;;36.08;;
55672;SDS011;41554;45.366;20.400;2022-10-31T06:04:59;67.80;;;40.22;;
55672;SDS011;41554;45.366;20.400;2022-10-31T06:07:26;73.88;;;36.83;;
55672;SDS011;41554;45.366;20.400;2022-10-31T06:09:52;79.10;;;40.05;;
55672;SDS011;41554;45.366;20.400;2022-10-31T06:12:18;62.83;;;33.30;;
55672;SDS011;41554;45.366;20.400;2022-10-31T06:14:44;61.20;;;34.58;;
55672;SDS011;41554;45.366;20.400;2022-10-31T06:17:10;68.70;;;38.70;;
55672;SDS011;41554;45.366;20.400;2022-10-31T06:19:36;60.47;;;34.45;;
55672;SDS011;41554;45.366;20.400;2022-10-31T06:22:02;72.07;;;35.13;;
55672;SDS011;41554;45.366;20.400;2022-10-31T06:24:28;62.33;;;32.17;;
55672;SDS011;41554;45.366;20.400;2022-10-31T06:26:55;65.18;;;34.75;;
55672;SDS011;41554;45.366;20.400;2022-10-31T06:29:21;69.15;;;38.83;;
55672;SDS011;41554;45.366;20.400;2022-10-31T06:31:47;59.67;;;36.22;;
55672;SDS011;41554;45.366;20.400;2022-10-31T06:34:13;59.92;;;34.13;;
55672;SDS011;41554;45.366;20.400;2022-10-31T06:36:39;75.20;;;37.25;;
55672;SDS011;41554;45.366;20.400;2022-10-31T06:39:05;59.75;;;34.72;;
55672;SDS011;41554;45.366;20.400;2022-10-31T06:41:31;55.88;;;31.13;;
55672;SDS011;41554;45.366;20.400;2022-10-31T06:43:57;53.67;;;32.28;;
55672;SDS011;41554;45.366;20.400;2022-10-31T06:46:23;65.10;;;35.58;;
55672;SDS011;41554;45.366;20.400;2022-10-31T06:48:49;71.47;;;38.33;;
55672;SDS011;41554;45.366;20.400;2022-10-31T06:51:15;63.78;;;34.88;;
55672;SDS011;41554;45.366;20.400;2022-10-31T06:53:41;65.70;;;31.95;;
55672;SDS011;41554;45.366;20.400;2022-10-31T06:56:07;57.78;;;30.58;;
55672;SDS011;41554;45.366;20.400;2022-10-31T06:58:33;64.63;;;34.25;;
55672;SDS011;41554;45.366;20.400;2022-10-31T07:00:59;49.75;;;28.70;;
55672;SDS011;41554;45.366;20.400;2022-10-31T07:03:25;71.72;;;34.10;;
55672;SDS011;41554;45.366;20.400;2022-10-31T07:05:52;60.47;;;34.33;;
55672;SDS011;41554;45.366;20.400;2022-10-31T07:08:18;46.13;;;30.17;;
55672;SDS011;41554;45.366;20.400;2022-10-31T07:10:50;55.78;;;35.65;;
55672;SDS011;41554;45.366;20.400;2022-10-31T07:13:16;59.38;;;36.42;;
55672;SDS011;41554;45.366;20.400;2022-10-31T07:15:42;64.68;;;34.75;;
55672;SDS011;41554;45.366;20.400;2022-10-31T07:18:09;73.25;;;41.55;;
55672;SDS011;41554;45.366;20.400;2022-10-31T07:20:35;72.70;;;39.92;;
55672;SDS011;41554;45.366;20.400;2022-10-31T07:23:02;59.67;;;34.40;;
55672;SDS011;41554;45.366;20.400;2022-10-31T07:25:28;61.10;;;33.55;;
55672;SDS011;41554;45.366;20.400;2022-10-31T07:27:54;48.90;;;32.05;;
55672;SDS011;41554;45.366;20.400;2022-10-31T07:30:20;64.43;;;36.30;;
55672;SDS011;41554;45.366;20.400;2022-10-31T07:32:47;102.65;;;58.58;;
55672;SDS011;41554;45.366;20.400;2022-10-31T07:35:14;70.90;;;46.45;;
55672;SDS011;41554;45.366;20.400;2022-10-31T07:37:41;61.90;;;34.72;;
55672;SDS011;41554;45.366;20.400;2022-10-31T07:40:07;55.70;;;28.63;;
55672;SDS011;41554;45.366;20.400;2022-10-31T07:45:03;55.45;;;28.50;;
55672;SDS011;41554;45.366;20.400;2022-10-31T07:47:29;52.22;;;30.42;;
55672;SDS011;41554;45.366;20.400;2022-10-31T07:49:55;63.80;;;30.15;;
55672;SDS011;41554;45.366;20.400;2022-10-31T07:52:21;66.00;;;33.85;;
55672;SDS011;41554;45.366;20.400;2022-10-31T07:54:48;70.80;;;35.50;;
55672;SDS011;41554;45.366;20.400;2022-10-31T07:57:14;59.58;;;33.83;;
55672;SDS011;41554;45.366;20.400;2022-10-31T07:59:40;63.75;;;34.17;;
55672;SDS011;41554;45.366;20.400;2022-10-31T08:02:07;49.25;;;30.42;;
55672;SDS011;41554;45.366;20.400;2022-10-31T08:04:33;61.05;;;31.55;;
55672;SDS011;41554;45.366;20.400;2022-10-31T08:06:59;61.35;;;33.30;;
55672;SDS011;41554;45.366;20.400;2022-10-31T08:09:25;51.60;;;33.45;;
55672;SDS011;41554;45.366;20.400;2022-10-31T08:11:52;45.15;;;29.55;;
55672;SDS011;41554;45.366;20.400;2022-10-31T08:14:18;51.67;;;31.38;;
55672;SDS011;41554;45.366;20.400;2022-10-31T08:16:44;54.72;;;33.78;;
55672;SDS011;41554;45.366;20.400;2022-10-31T08:19:10;68.15;;;32.45;;
55672;SDS011;41554;45.366;20.400;2022-10-31T08:21:36;57.22;;;34.30;;
55672;SDS011;41554;45.366;20.400;2022-10-31T08:24:02;69.03;;;39.55;;
55672;SDS011;41554;45.366;20.400;2022-10-31T08:26:29;71.35;;;42.85;;
55672;SDS011;41554;45.366;20.400;2022-10-31T08:28:55;73.57;;;41.13;;
55672;SDS011;41554;45.366;20.400;2022-10-31T08:31:22;60.35;;;32.08;;
55672;SDS011;41554;45.366;20.400;2022-10-31T08:33:48;57.10;;;35.78;;
55672;SDS011;41554;45.366;20.400;2022-10-31T08:36:14;75.47;;;41.45;;
55672;SDS011;41554;45.366;20.400;2022-10-31T08:38:40;60.35;;;37.45;;
55672;SDS011;41554;45.366;20.400;2022-10-31T08:41:07;69.15;;;41.22;;
55672;SDS011;41554;45.366;20.400;2022-10-31T08:43:33;68.22;;;43.65;;
55672;SDS011;41554;45.366;20.400;2022-10-31T08:45:59;84.68;;;45.90;;
55672;SDS011;41554;45.366;20.400;2022-10-31T08:48:25;83.32;;;46.10;;
55672;SDS011;41554;45.366;20.400;2022-10-31T08:50:51;72.18;;;44.10;;
55672;SDS011;41554;45.366;20.400;2022-10-31T08:53:17;66.50;;;43.63;;
55672;SDS011;41554;45.366;20.400;2022-10-31T08:55:44;67.03;;;42.58;;
55672;SDS011;41554;45.366;20.400;2022-10-31T08:58:12;73.22;;;42.38;;
55672;SDS011;41554;45.366;20.400;2022-10-31T09:00:38;61.40;;;39.97;;
55672;SDS011;41554;45.366;20.400;2022-10-31T09:03:05;73.35;;;45.78;;
55672;SDS011;41554;45.366;20.400;2022-10-31T09:05:32;72.40;;;44.80;;
55672;SDS011;41554;45.366;20.400;2022-10-31T09:07:59;68.82;;;41.78;;
55672;SDS011;41554;45.366;20.400;2022-10-31T09:10:26;72.50;;;43.33;;
55672;SDS011;41554;45.366;20.400;2022-10-31T09:12:59;58.67;;;38.60;;
55672;SDS011;41554;45.366;20.400;2022-10-31T09:15:26;60.65;;;39.38;;
55672;SDS011;41554;45.366;20.400;2022-10-31T09:17:52;62.72;;;39.08;;
55672;SDS011;41554;45.366;20.400;2022-10-31T09:20:18;56.42;;;35.45;;
55672;SDS011;41554;45.366;20.400;2022-10-31T09:22:45;49.30;;;32.28;;
55672;SDS011;41554;45.366;20.400;2022-10-31T09:25:11;51.35;;;32.97;;
55672;SDS011;41554;45.366;20.400;2022-10-31T09:27:37;50.80;;;32.05;;
55672;SDS011;41554;45.366;20.400;2022-10-31T09:30:03;53.35;;;31.75;;
55672;SDS011;41554;45.366;20.400;2022-10-31T09:32:30;55.78;;;33.92;;
55672;SDS011;41554;45.366;20.400;2022-10-31T09:34:56;56.90;;;35.25;;
55672;SDS011;41554;45.366;20.400;2022-10-31T09:37:22;62.65;;;34.00;;
55672;SDS011;41554;45.366;20.400;2022-10-31T09:39:48;61.03;;;30.45;;
55672;SDS011;41554;45.366;20.400;2022-10-31T09:47:43;47.05;;;34.20;;
55672;SDS011;41554;45.366;20.400;2022-10-31T09:50:20;62.78;;;36.83;;
55672;SDS011;41554;45.366;20.400;2022-10-31T09:53:03;57.67;;;33.20;;
55672;SDS011;41554;45.366;20.400;2022-10-31T09:57:57;58.95;;;36.05;;
55672;SDS011;41554;45.366;20.400;2022-10-31T10:00:24;53.67;;;32.03;;
55672;SDS011;41554;45.366;20.400;2022-10-31T10:02:56;46.97;;;29.38;;
55672;SDS011;41554;45.366;20.400;2022-10-31T10:05:32;45.88;;;28.38;;
55672;SDS011;41554;45.366;20.400;2022-10-31T10:08:21;47.88;;;28.85;;
55672;SDS011;41554;45.366;20.400;2022-10-31T10:25:38;45.47;;;29.25;;
55672;SDS011;41554;45.366;20.400;2022-10-31T10:33:02;51.35;;;22.75;;
55672;SDS011;41554;45.366;20.400;2022-10-31T10:35:34;37.08;;;24.02;;
55672;SDS011;41554;45.366;20.400;2022-10-31T10:38:02;32.88;;;20.42;;
55672;SDS011;41554;45.366;20.400;2022-10-31T10:40:29;46.13;;;24.20;;
55672;SDS011;41554;45.366;20.400;2022-10-31T10:48:44;58.88;;;39.63;;
55672;SDS011;41554;45.366;20.400;2022-10-31T10:51:15;66.38;;;42.83;;
55672;SDS011;41554;45.366;20.400;2022-10-31T10:56:44;52.00;;;30.92;;
55672;SDS011;41554;45.366;20.400;2022-10-31T10:59:13;56.05;;;32.10;;
55672;SDS011;41554;45.366;20.400;2022-10-31T11:01:40;59.95;;;26.40;;
55672;SDS011;41554;45.366;20.400;2022-10-31T11:09:27;55.83;;;32.22;;
55672;SDS011;41554;45.366;20.400;2022-10-31T11:11:54;43.03;;;30.63;;
55672;SDS011;41554;45.366;20.400;2022-10-31T11:14:20;49.35;;;30.35;;
55672;SDS011;41554;45.366;20.400;2022-10-31T11:17:07;46.90;;;28.80;;
55672;SDS011;41554;45.366;20.400;2022-10-31T11:19:33;49.40;;;29.90;;
55672;SDS011;41554;45.366;20.400;2022-10-31T11:22:14;49.97;;;28.95;;
55672;SDS011;41554;45.366;20.400;2022-10-31T11:24:41;40.95;;;26.25;;
55672;SDS011;41554;45.366;20.400;2022-10-31T11:27:19;52.00;;;29.70;;
55672;SDS011;41554;45.366;20.400;2022-10-31T11:29:46;45.75;;;25.83;;
55672;SDS011;41554;45.366;20.400;2022-10-31T11:32:19;57.97;;;30.25;;
55672;SDS011;41554;45.366;20.400;2022-10-31T11:34:46;38.88;;;27.83;;
55672;SDS011;41554;45.366;20.400;2022-10-31T11:39:41;44.47;;;27.33;;
55672;SDS011;41554;45.366;20.400;2022-10-31T11:42:09;50.45;;;25.80;;
55672;SDS011;41554;45.366;20.400;2022-10-31T11:44:35;49.20;;;32.78;;
55672;SDS011;41554;45.366;20.400;2022-10-31T11:47:02;59.58;;;35.85;;
55672;SDS011;41554;45.366;20.400;2022-10-31T11:49:32;61.10;;;34.00;;
55672;SDS011;41554;45.366;20.400;2022-10-31T11:52:01;52.13;;;32.50;;
55672;SDS011;41554;45.366;20.400;2022-10-31T11:54:39;62.17;;;30.02;;
55672;SDS011;41554;45.366;20.400;2022-10-31T11:57:07;55.78;;;32.25;;
55672;SDS011;41554;45.366;20.400;2022-10-31T11:59:51;50.75;;;29.23;;
55672;SDS011;41554;45.366;20.400;2022-10-31T12:02:18;59.03;;;33.85;;
55672;SDS011;41554;45.366;20.400;2022-10-31T12:04:46;51.50;;;33.30;;
55672;SDS011;41554;45.366;20.400;2022-10-31T12:07:14;56.08;;;29.42;;
55672;SDS011;41554;45.366;20.400;2022-10-31T12:09:40;47.97;;;29.45;;
55672;SDS011;41554;45.366;20.400;2022-10-31T12:17:24;47.38;;;27.58;;
55672;SDS011;41554;45.366;20.400;2022-10-31T12:30:20;44.03;;;25.80;;
55672;SDS011;41554;45.366;20.400;2022-10-31T12:35:21;41.92;;;24.50;;
55672;SDS011;41554;45.366;20.400;2022-10-31T12:45:37;31.02;;;20.52;;
55672;SDS011;41554;45.366;20.400;2022-10-31T12:58:26;41.78;;;23.17;;
55672;SDS011;41554;45.366;20.400;2022-10-31T13:00:58;48.15;;;23.88;;
55672;SDS011;41554;45.366;20.400;2022-10-31T13:06:17;36.42;;;21.83;;
55672;SDS011;41554;45.366;20.400;2022-10-31T13:08:45;45.55;;;21.95;;
55672;SDS011;41554;45.366;20.400;2022-10-31T13:11:21;28.23;;;21.10;;
55672;SDS011;41554;45.366;20.400;2022-10-31T13:16:21;29.08;;;19.20;;
55672;SDS011;41554;45.366;20.400;2022-10-31T13:18:55;34.38;;;20.92;;
55672;SDS011;41554;45.366;20.400;2022-10-31T13:21:27;30.88;;;17.73;;
55672;SDS011;41554;45.366;20.400;2022-10-31T13:23:56;34.78;;;21.83;;
55672;SDS011;41554;45.366;20.400;2022-10-31T13:29:05;37.78;;;20.63;;
55672;SDS011;41554;45.366;20.400;2022-10-31T13:31:35;34.10;;;19.88;;
55672;SDS011;41554;45.366;20.400;2022-10-31T13:34:08;25.77;;;17.52;;
55672;SDS011;41554;45.366;20.400;2022-10-31T13:36:45;43.05;;;21.23;;
55672;SDS011;41554;45.366;20.400;2022-10-31T13:39:17;27.70;;;19.17;;
55672;SDS011;41554;45.366;20.400;2022-10-31T13:44:25;45.35;;;23.23;;
55672;SDS011;41554;45.366;20.400;2022-10-31T13:46:53;31.40;;;17.98;;
55672;SDS011;41554;45.366;20.400;2022-10-31T13:54:43;30.35;;;17.77;;
55672;SDS011;41554;45.366;20.400;2022-10-31T13:57:18;35.13;;;20.50;;
55672;SDS011;41554;45.366;20.400;2022-10-31T13:59:50;23.33;;;16.65;;
55672;SDS011;41554;45.366;20.400;2022-10-31T14:02:18;32.47;;;20.60;;
55672;SDS011;41554;45.366;20.400;2022-10-31T14:04:49;28.15;;;17.58;;
55672;SDS011;41554;45.366;20.400;2022-10-31T14:07:20;29.08;;;19.77;;
55672;SDS011;41554;45.366;20.400;2022-10-31T14:12:36;40.80;;;17.83;;
55672;SDS011;41554;45.366;20.400;2022-10-31T14:15:04;30.40;;;18.70;;
55672;SDS011;41554;45.366;20.400;2022-10-31T14:17:35;31.00;;;21.65;;
55672;SDS011;41554;45.366;20.400;2022-10-31T14:22:37;32.67;;;20.80;;
55672;SDS011;41554;45.366;20.400;2022-10-31T14:27:47;27.75;;;16.77;;
55672;SDS011;41554;45.366;20.400;2022-10-31T14:30:14;35.13;;;17.15;;
55672;SDS011;41554;45.366;20.400;2022-10-31T14:32:40;35.38;;;23.27;;
55672;SDS011;41554;45.366;20.400;2022-10-31T14:35:09;40.95;;;22.70;;
55672;SDS011;41554;45.366;20.400;2022-10-31T14:45:29;38.75;;;23.63;;
55672;SDS011;41554;45.366;20.400;2022-10-31T14:53:00;30.10;;;20.80;;
55672;SDS011;41554;45.366;20.400;2022-10-31T14:55:27;32.25;;;21.85;;
55672;SDS011;41554;45.366;20.400;2022-10-31T14:57:54;38.65;;;23.13;;
55672;SDS011;41554;45.366;20.400;2022-10-31T15:00:21;35.22;;;18.65;;
55672;SDS011;41554;45.366;20.400;2022-10-31T15:02:59;29.80;;;18.63;;
55672;SDS011;41554;45.366;20.400;2022-10-31T15:05:26;41.40;;;23.67;;
55672;SDS011;41554;45.366;20.400;2022-10-31T15:07:53;34.15;;;20.02;;
55672;SDS011;41554;45.366;20.400;2022-10-31T15:12:50;25.33;;;19.73;;
55672;SDS011;41554;45.366;20.400;2022-10-31T15:15:21;32.67;;;20.98;;
55672;SDS011;41554;45.366;20.400;2022-10-31T15:17:57;37.63;;;22.60;;
55672;SDS011;41554;45.366;20.400;2022-10-31T15:20:28;28.55;;;20.60;;
55672;SDS011;41554;45.366;20.400;2022-10-31T15:25:21;50.63;;;23.23;;
55672;SDS011;41554;45.366;20.400;2022-10-31T15:27:47;44.72;;;22.48;;
55672;SDS011;41554;45.366;20.400;2022-10-31T15:32:44;34.42;;;21.50;;
55672;SDS011;41554;45.366;20.400;2022-10-31T15:35:14;32.22;;;21.50;;
55672;SDS011;41554;45.366;20.400;2022-10-31T15:37:43;33.97;;;22.20;;
55672;SDS011;41554;45.366;20.400;2022-10-31T15:40:16;39.35;;;23.67;;
55672;SDS011;41554;45.366;20.400;2022-10-31T15:42:44;38.55;;;23.08;;
55672;SDS011;41554;45.366;20.400;2022-10-31T15:47:38;37.88;;;21.02;;
55672;SDS011;41554;45.366;20.400;2022-10-31T15:50:06;38.08;;;21.85;;
55672;SDS011;41554;45.366;20.400;2022-10-31T15:52:44;36.05;;;22.48;;
55672;SDS011;41554;45.366;20.400;2022-10-31T15:57:41;33.28;;;21.00;;
55672;SDS011;41554;45.366;20.400;2022-10-31T16:03:10;42.00;;;22.83;;
55672;SDS011;41554;45.366;20.400;2022-10-31T16:05:45;40.58;;;26.20;;
55672;SDS011;41554;45.366;20.400;2022-10-31T16:10:50;45.05;;;29.73;;
55672;SDS011;41554;45.366;20.400;2022-10-31T16:13:17;42.88;;;25.17;;
55672;SDS011;41554;45.366;20.400;2022-10-31T16:15:48;61.70;;;31.65;;
55672;SDS011;41554;45.366;20.400;2022-10-31T16:18:15;37.85;;;25.52;;
55672;SDS011;41554;45.366;20.400;2022-10-31T16:20:41;57.28;;;34.38;;
55672;SDS011;41554;45.366;20.400;2022-10-31T16:23:15;48.75;;;29.65;;
55672;SDS011;41554;45.366;20.400;2022-10-31T16:25:42;51.08;;;32.03;;
55672;SDS011;41554;45.366;20.400;2022-10-31T16:28:18;53.53;;;33.00;;
55672;SDS011;41554;45.366;20.400;2022-10-31T16:30:47;49.22;;;30.02;;
55672;SDS011;41554;45.366;20.400;2022-10-31T16:33:33;40.45;;;26.42;;
55672;SDS011;41554;45.366;20.400;2022-10-31T16:36:01;39.83;;;25.75;;
55672;SDS011;41554;45.366;20.400;2022-10-31T16:38:47;44.92;;;28.63;;
55672;SDS011;41554;45.366;20.400;2022-10-31T16:41:13;43.25;;;30.65;;
55672;SDS011;41554;45.366;20.400;2022-10-31T16:43:39;42.13;;;26.60;;
55672;SDS011;41554;45.366;20.400;2022-10-31T16:46:05;41.30;;;27.05;;
55672;SDS011;41554;45.366;20.400;2022-10-31T16:48:31;41.40;;;27.83;;
55672;SDS011;41554;45.366;20.400;2022-10-31T16:50:57;35.65;;;27.02;;
55672;SDS011;41554;45.366;20.400;2022-10-31T16:53:23;41.83;;;29.75;;
55672;SDS011;41554;45.366;20.400;2022-10-31T16:55:56;36.72;;;24.23;;
55672;SDS011;41554;45.366;20.400;2022-10-31T16:58:26;39.47;;;26.63;;
55672;SDS011;41554;45.366;20.400;2022-10-31T17:03:19;40.13;;;26.65;;
55672;SDS011;41554;45.366;20.400;2022-10-31T17:05:45;35.40;;;23.52;;
55672;SDS011;41554;45.366;20.400;2022-10-31T17:08:11;42.28;;;27.88;;
55672;SDS011;41554;45.366;20.400;2022-10-31T17:10:38;51.67;;;33.38;;
55672;SDS011;41554;45.366;20.400;2022-10-31T17:13:04;39.67;;;28.98;;
55672;SDS011;41554;45.366;20.400;2022-10-31T17:15:35;42.80;;;28.15;;
55672;SDS011;41554;45.366;20.400;2022-10-31T17:18:04;42.88;;;30.75;;
55672;SDS011;41554;45.366;20.400;2022-10-31T17:20:30;56.30;;;33.95;;
55672;SDS011;41554;45.366;20.400;2022-10-31T17:22:57;48.70;;;33.58;;
55672;SDS011;41554;45.366;20.400;2022-10-31T17:25:27;48.22;;;34.47;;